Time;durP1;ratioP1;P1;durP2;ratioP2;P2;SDS_P1;SDS_P2;PMS_P1;PMS_P2;Temp;Humidity;BMP_temperature;BMP_pressure;BME280_temperature;BME280_humidity;BME280_pressure;Samples;Min_cycle;Max_cycle;Signal;HPM_P1;HPM_P2
2023/09/25 00:01:02;;;;;;;;;;;12.60;80.80;;;;;;4944110;29;19911;-84
2023/09/25 00:03:27;;;;;;;;;;;12.60;80.70;;;;;;4954748;28;19985;-84
2023/09/25 00:05:54;;;;;;;;;;;12.60;80.50;;;;;;4951610;29;20448;-84
2023/09/25 00:08:20;;;;;;;;;;;12.50;80.90;;;;;;4946932;29;19915;-84
2023/09/25 00:10:45;;;;;;;;;;;12.60;81.10;;;;;;4950976;29;20300;-84
2023/09/25 00:13:11;;;;;;;;;;;12.50;81.30;;;;;;4949858;29;19921;-83
2023/09/25 00:15:44;;;;;;;;;;;12.60;81.60;;;;;;4950944;29;19917;-83
2023/09/25 00:18:09;;;;;;;;;;;12.50;81.40;;;;;;4956875;29;19946;-83
2023/09/25 00:20:35;;;;;;;;;;;12.60;80.60;;;;;;4954059;28;19911;-84
2023/09/25 00:23:00;;;;;;;;;;;12.50;80.70;;;;;;4949482;29;19940;-84
2023/09/25 00:25:28;;;;;;;;;;;12.50;80.50;;;;;;4945996;29;19965;-84
2023/09/25 00:27:54;;;;;;;;;;;12.50;81.20;;;;;;4954074;29;19970;-85
2023/09/25 00:30:19;;;;;;;;;;;12.40;81.30;;;;;;4946282;29;19911;-85
2023/09/25 00:32:45;;;;;;;;;;;12.40;81.70;;;;;;4952893;28;20468;-84
2023/09/25 00:35:10;;;;;;;;;;;12.50;81.70;;;;;;4953460;28;19919;-83
2023/09/25 00:37:37;;;;;;;;;;;12.40;81.70;;;;;;4952256;29;20009;-84
2023/09/25 00:40:12;;;;;;;;;;;12.40;81.70;;;;;;4956937;29;19911;-83
2023/09/25 00:42:41;;;;;;;;;;;12.40;81.50;;;;;;4954217;28;19915;-84
2023/09/25 00:45:08;;;;;;;;;;;12.40;81.60;;;;;;4949958;29;19914;-84
2023/09/25 00:47:33;;;;;;;;;;;12.40;81.70;;;;;;4969313;28;19914;-84
2023/09/25 00:49:59;;;;;;;;;;;12.40;81.30;;;;;;4960159;29;19926;-84
2023/09/25 00:52:25;;;;;;;;;;;12.50;81.30;;;;;;4973802;28;19898;-83
2023/09/25 00:54:50;;;;;;;;;;;12.50;81.20;;;;;;4971703;29;19949;-84
2023/09/25 00:57:16;;;;;;;;;;;12.50;80.70;;;;;;4962109;29;19911;-84
2023/09/25 00:59:41;;;;;;;;;;;12.50;81.20;;;;;;4955737;29;19933;-84
2023/09/25 01:02:07;;;;;;;;;;;12.50;80.60;;;;;;4950603;29;19952;-84
2023/09/25 01:04:32;;;;;;;;;;;12.40;80.70;;;;;;4951754;29;19918;-84
2023/09/25 01:06:58;;;;;;;;;;;12.30;81.30;;;;;;4957060;28;19915;-84
2023/09/25 01:09:23;;;;;;;;;;;12.30;81.80;;;;;;4961638;29;19925;-84
2023/09/25 01:11:49;;;;;;;;;;;12.30;82.00;;;;;;4978302;28;19986;-83
2023/09/25 01:14:14;;;;;;;;;;;12.30;81.10;;;;;;4963566;29;19929;-84
2023/09/25 01:16:41;;;;;;;;;;;12.40;81.50;;;;;;4953382;29;19921;-84
2023/09/25 01:19:06;;;;;;;;;;;12.40;81.50;;;;;;4955926;28;19915;-84
2023/09/25 01:21:36;;;;;;;;;;;12.30;81.90;;;;;;4958284;29;19977;-84
2023/09/25 01:24:02;;;;;;;;;;;12.30;81.70;;;;;;4951048;29;20311;-84
2023/09/25 01:26:28;;;;;;;;;;;12.40;82.00;;;;;;4952774;29;19921;-84
2023/09/25 01:28:53;;;;;;;;;;;12.40;81.60;;;;;;4951988;29;19922;-83
2023/09/25 01:31:19;;;;;;;;;;;12.30;81.50;;;;;;4947615;29;19915;-84
2023/09/25 01:33:44;;;;;;;;;;;12.20;81.70;;;;;;4951223;29;19974;-84
2023/09/25 01:36:11;;;;;;;;;;;12.30;81.60;;;;;;4952403;29;19974;-84
2023/09/25 01:38:37;;;;;;;;;;;12.30;81.40;;;;;;4957358;29;19917;-84
2023/09/25 01:41:03;;;;;;;;;;;12.30;81.40;;;;;;4952065;29;19954;-84
2023/09/25 01:43:28;;;;;;;;;;;12.30;81.50;;;;;;4952809;29;19923;-84
2023/09/25 01:45:54;;;;;;;;;;;12.30;81.60;;;;;;4952196;29;19918;-84
2023/09/25 01:48:19;;;;;;;;;;;12.20;81.70;;;;;;4952296;29;19919;-84
2023/09/25 01:50:44;;;;;;;;;;;12.20;81.60;;;;;;4956469;29;19915;-84
2023/09/25 01:53:10;;;;;;;;;;;12.20;81.90;;;;;;4951633;28;19923;-84
2023/09/25 01:55:36;;;;;;;;;;;12.10;82.00;;;;;;4953708;29;19926;-84
2023/09/25 01:58:02;;;;;;;;;;;12.20;81.50;;;;;;4959697;29;19949;-84
2023/09/25 02:00:28;;;;;;;;;;;12.10;81.40;;;;;;4953089;29;20368;-84
2023/09/25 02:02:53;;;;;;;;;;;12.10;81.20;;;;;;4956235;29;19915;-84
2023/09/25 02:05:18;;;;;;;;;;;12.10;81.20;;;;;;4950957;28;19929;-84
2023/09/25 02:07:44;;;;;;;;;;;12.10;80.70;;;;;;4952568;28;19914;-83
2023/09/25 02:10:10;;;;;;;;;;;12.10;81.40;;;;;;4946710;29;19961;-84
2023/09/25 02:12:35;;;;;;;;;;;12.10;81.40;;;;;;4961039;28;19947;-84
2023/09/25 02:15:02;;;;;;;;;;;12.10;81.60;;;;;;4954626;29;20005;-84
2023/09/25 02:17:29;;;;;;;;;;;12.10;81.50;;;;;;4952763;29;20459;-84
2023/09/25 02:19:55;;;;;;;;;;;12.00;81.50;;;;;;4951966;29;19915;-84
2023/09/25 02:22:20;;;;;;;;;;;12.00;81.80;;;;;;4945720;29;19919;-84
2023/09/25 02:24:46;;;;;;;;;;;12.10;81.60;;;;;;4947099;29;19962;-84
2023/09/25 02:27:12;;;;;;;;;;;12.00;81.90;;;;;;4949574;29;19922;-84
2023/09/25 02:29:37;;;;;;;;;;;12.00;82.30;;;;;;4957833;29;19915;-84
2023/09/25 02:32:02;;;;;;;;;;;11.90;82.30;;;;;;4952856;29;19914;-84
2023/09/25 02:34:28;;;;;;;;;;;11.90;82.40;;;;;;4956290;29;19919;-84
2023/09/25 02:36:53;;;;;;;;;;;11.90;82.40;;;;;;4946499;29;19921;-84
2023/09/25 02:39:19;;;;;;;;;;;12.00;81.70;;;;;;4951620;29;19990;-84
2023/09/25 02:41:44;;;;;;;;;;;11.90;81.70;;;;;;4954101;29;19910;-85
2023/09/25 02:44:10;;;;;;;;;;;12.00;81.20;;;;;;4950519;28;19914;-84
2023/09/25 02:46:35;;;;;;;;;;;12.00;81.10;;;;;;4956453;28;19950;-84
2023/09/25 02:49:01;;;;;;;;;;;11.90;81.80;;;;;;4952295;29;19914;-84
2023/09/25 02:51:27;;;;;;;;;;;11.90;81.50;;;;;;4941803;29;19997;-84
2023/09/25 02:53:52;;;;;;;;;;;11.90;82.00;;;;;;4950860;29;19933;-84
2023/09/25 02:56:18;;;;;;;;;;;11.90;82.40;;;;;;4950816;29;19911;-84
2023/09/25 02:58:44;;;;;;;;;;;11.80;82.50;;;;;;4947021;29;19975;-84
2023/09/25 03:01:09;;;;;;;;;;;11.90;82.10;;;;;;4950816;29;19980;-84
2023/09/25 03:03:35;;;;;;;;;;;12.00;81.60;;;;;;4951603;29;19910;-84
2023/09/25 03:06:00;;;;;;;;;;;12.00;81.80;;;;;;4955469;28;19921;-86
2023/09/25 03:08:26;;;;;;;;;;;11.90;82.20;;;;;;4959282;29;19938;-84
2023/09/25 03:10:51;;;;;;;;;;;11.90;82.50;;;;;;4955934;29;19914;-84
2023/09/25 03:13:17;;;;;;;;;;;11.90;81.90;;;;;;4951276;29;19974;-85
2023/09/25 03:15:43;;;;;;;;;;;11.90;82.60;;;;;;4956401;29;19942;-84
2023/09/25 03:18:11;;;;;;;;;;;11.80;82.20;;;;;;4959901;29;19982;-84
2023/09/25 03:20:38;;;;;;;;;;;11.80;81.80;;;;;;4956260;29;19919;-84
2023/09/25 03:23:03;;;;;;;;;;;11.80;82.00;;;;;;4954082;29;19925;-84
2023/09/25 03:25:33;;;;;;;;;;;11.80;81.50;;;;;;4961725;28;19919;-84
2023/09/25 03:27:58;;;;;;;;;;;11.70;81.90;;;;;;4958976;29;19986;-85
2023/09/25 03:30:24;;;;;;;;;;;11.60;81.90;;;;;;4957142;29;19954;-83
2023/09/25 03:32:52;;;;;;;;;;;11.60;81.80;;;;;;4971464;29;19915;-84
2023/09/25 03:35:17;;;;;;;;;;;11.60;82.20;;;;;;4954845;29;19927;-84
2023/09/25 03:37:43;;;;;;;;;;;11.50;82.00;;;;;;4951478;29;19915;-84
2023/09/25 03:40:09;;;;;;;;;;;11.60;81.80;;;;;;4957369;29;19914;-84
2023/09/25 03:42:34;;;;;;;;;;;11.50;82.20;;;;;;4976422;28;19910;-84
2023/09/25 03:45:00;;;;;;;;;;;11.40;82.50;;;;;;4958423;29;20312;-84
2023/09/25 03:47:25;;;;;;;;;;;11.40;82.80;;;;;;4949870;29;19915;-85
2023/09/25 03:49:51;;;;;;;;;;;11.50;82.60;;;;;;4952204;29;20392;-85
2023/09/25 03:52:16;;;;;;;;;;;11.40;82.30;;;;;;4964483;29;21010;-83
2023/09/25 03:54:42;;;;;;;;;;;11.50;82.70;;;;;;4967636;29;19919;-83
2023/09/25 03:57:07;;;;;;;;;;;11.40;82.80;;;;;;4965650;29;20288;-83
2023/09/25 03:59:33;;;;;;;;;;;11.40;82.10;;;;;;4954294;29;20300;-83
2023/09/25 04:01:58;;;;;;;;;;;11.30;82.50;;;;;;4945905;29;19918;-84
2023/09/25 04:04:23;;;;;;;;;;;11.40;82.90;;;;;;4954842;29;19974;-83
2023/09/25 04:06:49;;;;;;;;;;;11.30;82.50;;;;;;4977163;28;19977;-83
2023/09/25 04:09:14;;;;;;;;;;;11.30;82.50;;;;;;4953459;29;19915;-84
2023/09/25 04:11:40;;;;;;;;;;;11.30;82.10;;;;;;4952133;29;20023;-84
2023/09/25 04:14:06;;;;;;;;;;;11.40;82.00;;;;;;4956990;29;19965;-83
2023/09/25 04:16:33;;;;;;;;;;;11.40;81.60;;;;;;4945187;29;20411;-84
2023/09/25 04:18:59;;;;;;;;;;;11.30;81.80;;;;;;4958877;29;19910;-83
2023/09/25 04:21:24;;;;;;;;;;;11.40;81.80;;;;;;4953911;28;19968;-84
2023/09/25 04:23:49;;;;;;;;;;;11.40;81.50;;;;;;4954852;29;19915;-82
2023/09/25 04:26:16;;;;;;;;;;;11.30;82.10;;;;;;4955128;29;19969;-82
2023/09/25 04:28:41;;;;;;;;;;;11.30;82.10;;;;;;4955832;29;19914;-82
2023/09/25 04:31:07;;;;;;;;;;;11.20;82.30;;;;;;4954738;28;20284;-81
2023/09/25 04:33:33;;;;;;;;;;;11.10;82.30;;;;;;4952276;29;19927;-81
2023/09/25 04:36:01;;;;;;;;;;;11.20;82.50;;;;;;4961888;28;19923;-81
2023/09/25 04:38:27;;;;;;;;;;;11.10;82.70;;;;;;4955881;29;19937;-82
2023/09/25 04:40:52;;;;;;;;;;;11.10;82.50;;;;;;4947029;29;19915;-81
2023/09/25 04:43:18;;;;;;;;;;;11.10;82.70;;;;;;4946211;28;19944;-82
2023/09/25 04:45:45;;;;;;;;;;;11.10;82.70;;;;;;4953414;29;19926;-83
2023/09/25 04:48:10;;;;;;;;;;;11.10;82.60;;;;;;4960516;29;19910;-82
2023/09/25 04:50:37;;;;;;;;;;;11.20;82.90;;;;;;4961469;28;20089;-82
2023/09/25 04:53:05;;;;;;;;;;;11.10;82.80;;;;;;4951310;29;19919;-80
2023/09/25 04:55:31;;;;;;;;;;;11.10;82.60;;;;;;4958072;29;20384;-83
2023/09/25 04:57:56;;;;;;;;;;;11.20;82.20;;;;;;4952331;29;19915;-84
2023/09/25 05:00:25;;;;;;;;;;;11.10;82.30;;;;;;4953393;29;19925;-81
2023/09/25 05:02:51;;;;;;;;;;;11.10;82.50;;;;;;4950596;28;20336;-81
2023/09/25 05:05:17;;;;;;;;;;;11.10;82.70;;;;;;4950689;29;19918;-81
2023/09/25 05:07:43;;;;;;;;;;;11.20;82.40;;;;;;4951700;29;20396;-80
2023/09/25 05:10:10;;;;;;;;;;;11.20;82.50;;;;;;4951923;29;19964;-81
2023/09/25 05:12:37;;;;;;;;;;;11.20;82.70;;;;;;4949551;28;19911;-82
2023/09/25 05:15:02;;;;;;;;;;;11.20;82.50;;;;;;4951894;29;19968;-82
2023/09/25 05:17:28;;;;;;;;;;;11.20;82.50;;;;;;4953856;28;19991;-82
2023/09/25 05:19:53;;;;;;;;;;;11.20;82.90;;;;;;4953672;28;19925;-82
2023/09/25 05:22:19;;;;;;;;;;;11.20;82.80;;;;;;4952737;29;20004;-84
2023/09/25 05:24:44;;;;;;;;;;;11.20;83.10;;;;;;4953816;29;19914;-82
2023/09/25 05:27:10;;;;;;;;;;;11.20;83.10;;;;;;4951180;28;19915;-82
2023/09/25 05:29:36;;;;;;;;;;;11.10;83.40;;;;;;4953093;28;19914;-83
2023/09/25 05:32:04;;;;;;;;;;;11.20;82.90;;;;;;4954208;28;20415;-83
2023/09/25 05:34:30;;;;;;;;;;;11.10;83.00;;;;;;4951900;29;19951;-86
2023/09/25 05:36:56;;;;;;;;;;;11.10;82.80;;;;;;4947233;28;19918;-85
2023/09/25 05:39:24;;;;;;;;;;;11.20;82.10;;;;;;4970016;28;19947;-83
2023/09/25 05:41:50;;;;;;;;;;;11.10;82.30;;;;;;4953853;28;19921;-83
2023/09/25 05:44:15;;;;;;;;;;;11.00;82.20;;;;;;4956505;29;19993;-83
2023/09/25 05:46:41;;;;;;;;;;;10.90;82.00;;;;;;4962934;29;19942;-82
2023/09/25 05:49:07;;;;;;;;;;;10.90;82.60;;;;;;4969841;29;19930;-83
2023/09/25 05:51:39;;;;;;;;;;;11.00;82.30;;;;;;5102072;27;19917;-82
2023/09/25 05:54:05;;;;;;;;;;;11.00;82.70;;;;;;5098002;28;19955;-82
2023/09/25 05:56:31;;;;;;;;;;;11.00;83.30;;;;;;5094618;28;19912;-82
2023/09/25 05:58:56;;;;;;;;;;;11.10;83.70;;;;;;5094427;28;19912;-82
2023/09/25 06:01:22;;;;;;;;;;;11.10;83.70;;;;;;5087566;28;19913;-81
2023/09/25 06:03:49;;;;;;;;;;;11.10;83.90;;;;;;5091438;28;20332;-82
2023/09/25 06:06:15;;;;;;;;;;;11.20;83.90;;;;;;5084419;28;19913;-83
2023/09/25 06:08:40;;;;;;;;;;;11.30;84.00;;;;;;5091512;28;19948;-82
2023/09/25 06:11:06;;;;;;;;;;;11.30;83.80;;;;;;5089856;28;19916;-82
2023/09/25 06:13:31;;;;;;;;;;;11.30;83.30;;;;;;5092664;28;19958;-83
2023/09/25 06:15:57;;;;;;;;;;;11.30;84.00;;;;;;5094833;28;19955;-82
2023/09/25 06:18:22;;;;;;;;;;;11.30;84.10;;;;;;5095730;28;19952;-83
2023/09/25 06:20:48;;;;;;;;;;;11.40;84.30;;;;;;5108545;28;19913;-83
2023/09/25 06:23:14;;;;;;;;;;;11.50;84.20;;;;;;5095057;28;19948;-82
2023/09/25 06:25:44;;;;;;;;;;;11.60;84.60;;;;;;5087814;28;19939;-83
2023/09/25 06:28:11;;;;;;;;;;;11.60;84.70;;;;;;5104785;28;19916;-82
2023/09/25 06:30:37;;;;;;;;;;;11.70;84.70;;;;;;5088386;28;19917;-82
2023/09/25 06:33:02;;;;;;;;;;;11.80;84.80;;;;;;5085487;28;19919;-83
2023/09/25 06:35:28;;;;;;;;;;;11.90;84.60;;;;;;5081120;28;19916;-82
2023/09/25 06:37:54;;;;;;;;;;;12.00;84.60;;;;;;5082477;28;19912;-83
2023/09/25 06:40:19;;;;;;;;;;;12.10;84.60;;;;;;5087796;28;19913;-82
2023/09/25 06:42:45;;;;;;;;;;;12.10;84.50;;;;;;5093241;28;19919;-83
2023/09/25 06:45:10;;;;;;;;;;;12.30;84.40;;;;;;5092513;28;20002;-83
2023/09/25 06:47:36;;;;;;;;;;;12.40;84.10;;;;;;5112887;28;19917;-83
2023/09/25 06:50:02;;;;;;;;;;;12.60;82.40;;;;;;5100171;28;19920;-82
2023/09/25 06:52:28;;;;;;;;;;;12.70;82.20;;;;;;5092959;28;19916;-82
2023/09/25 06:54:55;;;;;;;;;;;12.80;81.90;;;;;;5110037;28;19912;-82
2023/09/25 06:57:20;;;;;;;;;;;12.90;81.20;;;;;;5089788;28;19987;-82
2023/09/25 06:59:46;;;;;;;;;;;13.00;80.50;;;;;;5106012;28;19911;-82
2023/09/25 07:02:11;;;;;;;;;;;13.20;79.70;;;;;;5102711;28;19954;-83
2023/09/25 07:04:37;;;;;;;;;;;13.30;79.60;;;;;;5092389;28;19908;-83
2023/09/25 07:07:03;;;;;;;;;;;13.60;77.50;;;;;;5091372;28;19912;-82
2023/09/25 07:09:28;;;;;;;;;;;13.70;77.00;;;;;;5077182;28;19916;-83
2023/09/25 07:11:54;;;;;;;;;;;13.70;77.30;;;;;;5076564;28;19912;-82
2023/09/25 07:14:19;;;;;;;;;;;13.70;77.20;;;;;;5071937;28;19946;-83
2023/09/25 07:16:44;;;;;;;;;;;13.90;76.40;;;;;;5091559;28;20377;-82
2023/09/25 07:19:11;;;;;;;;;;;14.10;75.80;;;;;;5077076;28;19916;-83
2023/09/25 07:21:36;;;;;;;;;;;14.20;76.00;;;;;;5065015;28;19920;-82
2023/09/25 07:24:02;;;;;;;;;;;14.40;74.40;;;;;;5088828;28;19913;-82
2023/09/25 07:26:28;;;;;;;;;;;14.50;74.20;;;;;;5061694;28;19921;-82
2023/09/25 07:28:53;;;;;;;;;;;14.50;73.80;;;;;;5093212;28;19963;-83
2023/09/25 07:31:19;;;;;;;;;;;14.50;74.00;;;;;;5088275;28;19976;-82
2023/09/25 07:33:45;;;;;;;;;;;14.70;72.60;;;;;;5088501;28;19926;-83
2023/09/25 07:36:11;;;;;;;;;;;14.60;73.20;;;;;;5093244;28;19938;-83
2023/09/25 07:38:36;;;;;;;;;;;14.60;73.20;;;;;;5086984;28;20438;-83
2023/09/25 07:41:02;;;;;;;;;;;14.70;72.30;;;;;;5064598;28;19923;-82
2023/09/25 07:43:29;;;;;;;;;;;14.70;72.30;;;;;;5083049;28;20003;-81
2023/09/25 07:45:55;;;;;;;;;;;14.70;73.10;;;;;;5067178;28;19912;-81
2023/09/25 07:48:20;;;;;;;;;;;14.80;72.80;;;;;;5081166;28;19908;-82
2023/09/25 07:50:46;;;;;;;;;;;14.80;72.80;;;;;;5098028;28;20297;-82
2023/09/25 07:53:12;;;;;;;;;;;15.00;70.80;;;;;;5075895;28;19927;-82
2023/09/25 07:55:38;;;;;;;;;;;15.00;70.70;;;;;;5094287;28;19916;-82
2023/09/25 07:58:04;;;;;;;;;;;15.10;69.70;;;;;;5090534;28;19912;-81
2023/09/25 08:00:34;;;;;;;;;;;15.10;70.20;;;;;;5076173;28;19993;-81
2023/09/25 08:02:59;;;;;;;;;;;15.40;68.80;;;;;;5078879;28;19908;-81
2023/09/25 08:05:25;;;;;;;;;;;15.60;67.80;;;;;;5084149;28;19916;-82
2023/09/25 08:07:51;;;;;;;;;;;15.70;67.80;;;;;;5070128;28;19912;-82
2023/09/25 08:10:17;;;;;;;;;;;15.90;67.10;;;;;;5067524;28;20316;-82
2023/09/25 08:12:43;;;;;;;;;;;15.80;67.20;;;;;;5072783;28;19948;-82
2023/09/25 08:15:10;;;;;;;;;;;15.80;68.80;;;;;;5063542;28;20015;-81
2023/09/25 08:17:36;;;;;;;;;;;15.80;67.70;;;;;;5071712;28;19912;-80
2023/09/25 08:20:13;;;;;;;;;;;15.90;66.80;;;;;;5096409;28;19980;-82
2023/09/25 08:22:38;;;;;;;;;;;16.10;66.50;;;;;;5071334;28;20008;-82
2023/09/25 08:25:04;;;;;;;;;;;16.10;66.40;;;;;;5080922;28;19936;-81
2023/09/25 08:27:29;;;;;;;;;;;16.10;65.50;;;;;;5078727;28;20412;-82
2023/09/25 08:29:55;;;;;;;;;;;16.10;65.40;;;;;;5091911;28;20278;-82
2023/09/25 08:32:20;;;;;;;;;;;16.20;64.60;;;;;;5060532;28;20334;-82
2023/09/25 08:34:46;;;;;;;;;;;16.40;65.30;;;;;;5095725;28;19914;-81
2023/09/25 08:37:11;;;;;;;;;;;16.50;66.00;;;;;;5091069;28;19952;-82
2023/09/25 08:39:37;;;;;;;;;;;16.40;66.20;;;;;;5091301;28;19959;-82
2023/09/25 08:42:02;;;;;;;;;;;16.30;65.90;;;;;;5070436;28;19908;-82
2023/09/25 08:45:05;;;;;;;;;;;;;;;;;;;;;
2023/09/25 09:00:14;;;;;;;;;;;16.80;64.90;;;;;;4981242;28;19917;-85
2023/09/25 09:06:22;;;;;;;;;;;17.10;62.20;;;;;;5011622;28;19949;-83
2023/09/25 09:15:52;;;;;;;;;;;;;;;;;;;;;
2023/09/25 09:18:51;;;;;;;;;;;17.50;61.80;;;;;;4997066;28;20394;-82
2023/09/25 09:43:09;;;;;;;;;;;;;;;;;;;;;
2023/09/25 09:49:00;;;;;;;;;;;;;;;;;;;;;
2023/09/25 09:51:55;;;;;;;;;;;18.40;55.70;;;;;;5071902;28;19988;-82
2023/09/25 09:58:09;;;;;;;;;;;18.50;55.20;;;;;;5061787;28;19923;-82
2023/09/25 10:01:32;;;;;;;;;;;;;;;;;;;;;
2023/09/25 10:09:56;;;;;;;;;;;18.60;54.00;;;;;;5055166;28;19983;-85
2023/09/25 10:12:38;;;;;;;;;;;18.70;53.80;;;;;;5084253;28;20401;-85
2023/09/25 10:15:04;;;;;;;;;;;18.90;50.90;;;;;;5073457;28;19988;-84
2023/09/25 10:17:37;;;;;;;;;;;19.10;49.70;;;;;;5075067;28;19955;-86
2023/09/25 10:20:03;;;;;;;;;;;19.20;49.50;;;;;;5076903;28;20062;-85
2023/09/25 10:22:30;;;;;;;;;;;19.30;50.60;;;;;;5074162;28;19970;-85
2023/09/25 10:25:04;;;;;;;;;;;19.40;49.90;;;;;;5075331;28;19920;-85
2023/09/25 10:27:31;;;;;;;;;;;19.40;49.50;;;;;;5084518;28;19918;-85
2023/09/25 10:30:08;;;;;;;;;;;19.40;49.10;;;;;;5071273;28;20034;-83
2023/09/25 10:32:36;;;;;;;;;;;19.50;49.00;;;;;;5066219;28;20011;-85
2023/09/25 10:35:20;;;;;;;;;;;19.50;49.20;;;;;;5090950;28;19991;-85
2023/09/25 10:38:05;;;;;;;;;;;19.50;48.70;;;;;;5069155;28;19916;-85
2023/09/25 10:40:30;;;;;;;;;;;19.60;49.00;;;;;;5067512;28;19916;-84
2023/09/25 10:42:56;;;;;;;;;;;19.70;49.70;;;;;;5073076;28;19924;-85
2023/09/25 10:45:22;;;;;;;;;;;19.60;49.10;;;;;;5075252;28;19923;-84
2023/09/25 10:47:48;;;;;;;;;;;19.60;50.30;;;;;;5073431;28;20015;-85
2023/09/25 10:50:13;;;;;;;;;;;19.70;49.30;;;;;;5070854;28;19927;-84
2023/09/25 10:52:39;;;;;;;;;;;19.60;49.80;;;;;;5071110;28;19912;-84
2023/09/25 10:55:04;;;;;;;;;;;19.60;49.90;;;;;;5072935;28;19917;-85
2023/09/25 10:57:31;;;;;;;;;;;19.60;50.80;;;;;;5073811;28;20466;-84
2023/09/25 10:59:56;;;;;;;;;;;19.50;51.50;;;;;;5070527;28;19913;-84
2023/09/25 11:02:21;;;;;;;;;;;19.60;50.20;;;;;;5073804;28;20004;-85
2023/09/25 11:04:47;;;;;;;;;;;19.60;49.80;;;;;;5076416;28;19966;-84
2023/09/25 11:07:13;;;;;;;;;;;19.50;49.90;;;;;;5073308;28;19976;-85
2023/09/25 11:09:38;;;;;;;;;;;19.70;48.30;;;;;;5075200;28;20295;-85
2023/09/25 11:12:04;;;;;;;;;;;19.80;48.40;;;;;;5073040;28;20057;-85
2023/09/25 11:14:35;;;;;;;;;;;19.80;49.60;;;;;;5076358;28;19920;-84
2023/09/25 11:17:01;;;;;;;;;;;19.90;50.70;;;;;;5076656;28;20406;-85
2023/09/25 11:19:28;;;;;;;;;;;19.80;52.60;;;;;;5072875;28;19921;-85
2023/09/25 11:21:55;;;;;;;;;;;19.90;50.10;;;;;;5073891;28;19955;-84
2023/09/25 11:24:20;;;;;;;;;;;20.00;50.50;;;;;;5070916;28;19920;-85
2023/09/25 11:26:48;;;;;;;;;;;19.90;51.20;;;;;;5075890;28;19912;-85
2023/09/25 11:29:13;;;;;;;;;;;20.00;49.90;;;;;;5071107;28;19920;-86
2023/09/25 11:31:39;;;;;;;;;;;19.90;50.60;;;;;;5076908;28;20194;-84
2023/09/25 11:34:06;;;;;;;;;;;19.80;51.30;;;;;;5087211;28;19920;-85
2023/09/25 11:36:32;;;;;;;;;;;19.80;51.60;;;;;;5065440;28;19944;-84
2023/09/25 11:38:58;;;;;;;;;;;19.70;52.40;;;;;;5075427;28;19934;-85
2023/09/25 11:41:24;;;;;;;;;;;19.80;52.20;;;;;;5079991;28;19954;-83
2023/09/25 11:43:49;;;;;;;;;;;19.80;53.30;;;;;;5089354;28;20006;-83
2023/09/25 11:46:15;;;;;;;;;;;20.00;51.20;;;;;;5082911;28;19913;-84
2023/09/25 11:48:41;;;;;;;;;;;20.00;51.70;;;;;;5081440;28;20003;-85
2023/09/25 11:51:06;;;;;;;;;;;20.00;51.50;;;;;;5079419;28;19916;-85
2023/09/25 11:53:32;;;;;;;;;;;20.10;48.70;;;;;;5080642;28;20308;-83
2023/09/25 11:55:57;;;;;;;;;;;20.30;49.40;;;;;;5071413;28;19918;-83
2023/09/25 11:58:23;;;;;;;;;;;20.20;50.60;;;;;;5078928;28;19912;-84
2023/09/25 12:00:48;;;;;;;;;;;20.10;50.60;;;;;;5077214;28;19916;-82
2023/09/25 12:03:14;;;;;;;;;;;20.10;51.40;;;;;;5081995;28;19916;-83
2023/09/25 12:05:40;;;;;;;;;;;20.10;48.60;;;;;;5081164;28;19919;-84
2023/09/25 12:08:06;;;;;;;;;;;20.20;48.80;;;;;;5079977;28;19913;-84
2023/09/25 12:10:38;;;;;;;;;;;20.40;46.50;;;;;;5082334;28;20003;-84
2023/09/25 12:13:07;;;;;;;;;;;20.40;48.40;;;;;;5085379;28;19913;-83
2023/09/25 12:15:32;;;;;;;;;;;20.50;49.30;;;;;;5086367;28;19917;-84
2023/09/25 12:17:58;;;;;;;;;;;20.50;48.20;;;;;;5084050;28;19964;-84
2023/09/25 12:20:24;;;;;;;;;;;20.40;48.60;;;;;;5085570;28;19919;-84
2023/09/25 12:22:52;;;;;;;;;;;20.50;47.10;;;;;;5081248;28;19996;-82
2023/09/25 12:25:19;;;;;;;;;;;20.70;47.10;;;;;;5082316;28;19923;-84
2023/09/25 12:27:45;;;;;;;;;;;20.90;45.30;;;;;;5085419;28;19972;-84
2023/09/25 12:30:13;;;;;;;;;;;21.00;44.90;;;;;;5084153;28;20377;-83
2023/09/25 12:37:51;;;;;;;;;;;20.70;48.50;;;;;;5058870;28;19924;-84
2023/09/25 12:40:22;;;;;;;;;;;20.60;49.40;;;;;;5072022;28;19909;-84
2023/09/25 12:42:50;;;;;;;;;;;20.60;48.70;;;;;;5065443;28;19912;-84
2023/09/25 12:45:19;;;;;;;;;;;20.50;49.20;;;;;;5068540;28;19923;-85
2023/09/25 12:48:09;;;;;;;;;;;20.60;48.10;;;;;;5060626;28;19913;-84
2023/09/25 12:50:33;;;;;;;;;;;20.50;48.90;;;;;;5063827;28;19932;-84
2023/09/25 12:53:04;;;;;;;;;;;20.50;48.80;;;;;;5053416;28;19913;-84
2023/09/25 12:55:43;;;;;;;;;;;20.70;47.30;;;;;;5057987;28;19917;-84
2023/09/25 12:58:13;;;;;;;;;;;20.50;48.30;;;;;;5060460;28;19912;-84
2023/09/25 13:00:39;;;;;;;;;;;20.60;48.40;;;;;;5054402;28;19917;-83
2023/09/25 13:03:04;;;;;;;;;;;20.70;47.10;;;;;;5052967;28;19912;-84
2023/09/25 13:05:33;;;;;;;;;;;20.60;46.90;;;;;;5058111;28;19916;-84
2023/09/25 13:08:05;;;;;;;;;;;20.80;45.60;;;;;;5056287;28;19951;-84
2023/09/25 13:10:30;;;;;;;;;;;21.00;45.70;;;;;;5063471;28;19916;-84
2023/09/25 13:13:01;;;;;;;;;;;21.10;44.80;;;;;;5056970;28;20400;-84
2023/09/25 13:15:27;;;;;;;;;;;21.20;45.40;;;;;;5065694;28;19916;-83
2023/09/25 13:17:52;;;;;;;;;;;21.20;46.40;;;;;;5058738;28;19913;-84
2023/09/25 13:20:18;;;;;;;;;;;21.10;47.10;;;;;;5070595;28;19916;-84
2023/09/25 13:22:44;;;;;;;;;;;21.10;47.40;;;;;;5062076;28;19913;-85
2023/09/25 13:25:10;;;;;;;;;;;21.20;45.00;;;;;;5078584;28;19909;-83
2023/09/25 13:27:48;;;;;;;;;;;21.20;45.30;;;;;;5070034;28;19944;-84
2023/09/25 13:30:16;;;;;;;;;;;21.10;47.10;;;;;;5068752;28;19929;-82
2023/09/25 13:32:41;;;;;;;;;;;21.10;49.50;;;;;;5074741;28;19939;-83
2023/09/25 13:35:09;;;;;;;;;;;21.00;47.20;;;;;;5073289;28;19917;-82
2023/09/25 13:37:35;;;;;;;;;;;21.00;48.50;;;;;;5069956;28;19931;-83
2023/09/25 13:40:21;;;;;;;;;;;20.90;49.30;;;;;;5062910;28;20341;-83
2023/09/25 13:42:46;;;;;;;;;;;21.00;46.50;;;;;;5062168;28;19920;-83
2023/09/25 13:45:22;;;;;;;;;;;21.10;46.00;;;;;;5059065;28;19938;-85
2023/09/25 13:47:48;;;;;;;;;;;21.10;46.00;;;;;;5062785;28;19913;-83
2023/09/25 13:50:14;;;;;;;;;;;21.20;45.60;;;;;;5064617;28;19963;-83
2023/09/25 13:52:42;;;;;;;;;;;21.10;48.60;;;;;;5059070;28;20295;-83
2023/09/25 13:55:15;;;;;;;;;;;21.00;46.80;;;;;;5059183;28;19999;-83
2023/09/25 13:58:01;;;;;;;;;;;21.00;46.50;;;;;;5068205;28;19913;-85
2023/09/25 14:00:27;;;;;;;;;;;21.00;46.70;;;;;;5073502;28;19913;-83
2023/09/25 14:02:53;;;;;;;;;;;21.00;46.50;;;;;;5063988;28;19995;-85
2023/09/25 14:05:19;;;;;;;;;;;21.00;47.10;;;;;;5075861;28;20338;-85
2023/09/25 14:07:45;;;;;;;;;;;21.00;49.20;;;;;;5066018;28;20365;-85
2023/09/25 14:10:13;;;;;;;;;;;21.00;47.70;;;;;;5100708;28;19924;-83
2023/09/25 14:12:44;;;;;;;;;;;21.00;48.40;;;;;;5070710;28;19915;-83
2023/09/25 14:15:12;;;;;;;;;;;21.00;48.90;;;;;;5070353;28;20011;-87
2023/09/25 14:17:38;;;;;;;;;;;20.70;47.40;;;;;;5069619;28;20380;-86
2023/09/25 14:20:04;;;;;;;;;;;20.60;49.20;;;;;;5059162;28;19927;-85
2023/09/25 14:22:31;;;;;;;;;;;20.60;50.60;;;;;;5058823;28;19940;-86
2023/09/25 14:24:59;;;;;;;;;;;20.90;47.60;;;;;;5059419;28;20880;-81
2023/09/25 14:27:25;;;;;;;;;;;20.70;51.20;;;;;;5066463;28;19909;-79
2023/09/25 14:29:50;;;;;;;;;;;20.80;49.20;;;;;;5067706;28;19917;-80
2023/09/25 14:32:16;;;;;;;;;;;20.80;50.20;;;;;;5082649;28;19920;-80
2023/09/25 14:34:41;;;;;;;;;;;20.70;51.00;;;;;;5083615;28;19921;-80
2023/09/25 14:37:07;;;;;;;;;;;20.60;51.60;;;;;;5054544;28;19939;-79
2023/09/25 14:39:32;;;;;;;;;;;20.50;51.70;;;;;;5061375;28;20682;-83
2023/09/25 14:41:58;;;;;;;;;;;20.50;53.40;;;;;;5058414;28;19919;-82
2023/09/25 14:44:25;;;;;;;;;;;20.30;51.90;;;;;;5054500;28;19919;-85
2023/09/25 14:46:51;;;;;;;;;;;20.20;52.90;;;;;;5055315;28;19913;-84
2023/09/25 14:49:16;;;;;;;;;;;20.20;52.90;;;;;;5054237;28;19917;-85
2023/09/25 14:51:42;;;;;;;;;;;20.20;52.80;;;;;;5059687;28;20066;-84
2023/09/25 14:54:07;;;;;;;;;;;20.20;52.20;;;;;;5058348;28;19966;-83
2023/09/25 14:56:33;;;;;;;;;;;20.30;53.00;;;;;;5053765;28;19913;-82
2023/09/25 14:58:58;;;;;;;;;;;20.20;52.70;;;;;;5049380;28;20007;-82
2023/09/25 15:01:23;;;;;;;;;;;20.20;53.20;;;;;;5054212;28;19913;-82
2023/09/25 15:03:49;;;;;;;;;;;20.30;53.30;;;;;;5054340;28;19913;-81
2023/09/25 15:06:15;;;;;;;;;;;20.20;55.10;;;;;;5057061;28;19913;-82
2023/09/25 15:08:41;;;;;;;;;;;20.20;56.80;;;;;;5060473;28;19917;-82
2023/09/25 15:11:06;;;;;;;;;;;20.20;56.10;;;;;;5095379;28;19923;-82
2023/09/25 15:13:34;;;;;;;;;;;20.10;55.60;;;;;;5059173;28;20286;-82
2023/09/25 15:16:00;;;;;;;;;;;20.10;55.20;;;;;;5058876;28;19920;-82
2023/09/25 15:18:25;;;;;;;;;;;20.10;55.90;;;;;;5052841;28;19909;-81
2023/09/25 15:20:51;;;;;;;;;;;20.10;55.90;;;;;;5054740;28;20338;-82
2023/09/25 15:23:16;;;;;;;;;;;20.10;56.80;;;;;;5055996;28;20344;-82